Terminal Aerodrome Forecast
Issued by NWS Mt. Holly, NJ

Home | Current Version | Previous Version | Text Only | Print | Product List | Glossary On
Versions: 1 2 3 4 5 6 7 8 9 10 11 12 13 14 15 16
000
FTUS41 KPHI 232339
TAFTTN
TAF
KTTN 232339Z 2400/2424 22005KT P6SM BKN250
     FM240200 20004KT P6SM BKN070
     FM240800 21004KT 3SM BR SCT060
     FM240900 19003KT 2SM BR SCT004 BKN040
      TEMPO 2410/2414 1/2SM FG OVC003
     FM241400 19004KT 1 1/2SM BR OVC006
     FM241600 20005KT 3SM BR OVC010
     FM241800 20009G18KT P6SM SCT035=

USA.gov is the U.S. government's official web portal to all federal, state and local government web resources and services.